Time;durP1;ratioP1;P1;durP2;ratioP2;P2;SDS_P1;SDS_P2;PMS_P1;PMS_P2;Temp;Humidity;BMP_temperature;BMP_pressure;BME280_temperature;BME280_humidity;BME280_pressure;Samples;Min_cycle;Max_cycle;Signal;HPM_P1;HPM_P2
2023/12/10 00:00:55;;;;;;;;;;;;;;;21.41;17.66;97310.19;5028154;28;19921;-87
2023/12/10 00:03:21;;;;;;;;;;;;;;;21.45;17.39;97294.16;5030462;28;19929;-87
2023/12/10 00:05:47;;;;;;;;;;;;;;;21.31;17.57;97290.47;5030641;28;20281;-87
2023/12/10 00:08:14;;;;;;;;;;;;;;;21.05;17.91;97301.88;5054454;27;19916;-87
2023/12/10 00:10:40;;;;;;;;;;;;;;;21.15;17.79;97290.44;5031756;28;19921;-87
2023/12/10 00:13:06;;;;;;;;;;;;;;;21.07;18.00;97299.44;5029626;28;19921;-87
2023/12/10 00:15:32;;;;;;;;;;;;;;;21.06;18.27;97300.63;5009692;28;20374;-87
2023/12/10 00:17:58;;;;;;;;;;;;;;;21.37;17.49;97287.16;5023139;28;19928;-87
2023/12/10 00:20:25;;;;;;;;;;;;;;;21.31;17.44;97289.69;5030146;28;19921;-87
2023/12/10 00:22:51;;;;;;;;;;;;;;;21.62;16.94;97276.97;5028786;28;20365;-87
2023/12/10 00:25:17;;;;;;;;;;;;;;;21.62;16.81;97274.19;5028027;28;19921;-87
2023/12/10 00:27:43;;;;;;;;;;;;;;;21.42;17.19;97275.50;5026517;28;19917;-87
2023/12/10 00:30:09;;;;;;;;;;;;;;;21.17;17.38;97276.84;5029409;28;19921;-87
2023/12/10 00:32:36;;;;;;;;;;;;;;;21.42;17.64;97273.50;5034586;28;20002;-87
2023/12/10 00:35:02;;;;;;;;;;;;;;;21.60;17.02;97262.66;5026477;28;19975;-87
2023/12/10 00:37:28;;;;;;;;;;;;;;;21.79;17.08;97255.41;5024436;28;19925;-87
2023/12/10 00:39:55;;;;;;;;;;;;;;;21.69;16.94;97257.25;5027275;28;19925;-87
2023/12/10 00:42:21;;;;;;;;;;;;;;;21.44;17.66;97259.88;5009786;28;20336;-87
2023/12/10 00:44:47;;;;;;;;;;;;;;;21.08;17.61;97265.50;5000106;28;20342;-87
2023/12/10 00:47:13;;;;;;;;;;;;;;;21.25;17.49;97261.50;5028098;28;19928;-87
2023/12/10 00:49:39;;;;;;;;;;;;;;;21.20;17.72;97261.22;5022141;28;19926;-87
2023/12/10 00:52:05;;;;;;;;;;;;;;;21.38;17.80;97277.59;5024830;28;19921;-87
2023/12/10 00:54:33;;;;;;;;;;;;;;;21.45;17.49;97271.84;5028009;28;20019;-87
2023/12/10 00:56:59;;;;;;;;;;;;;;;21.74;17.20;97250.34;5027632;28;19984;-87
2023/12/10 00:59:26;;;;;;;;;;;;;;;21.67;16.84;97250.50;5021010;28;19963;-87
2023/12/10 01:01:52;;;;;;;;;;;;;;;21.46;17.38;97259.41;5023908;28;20029;-87
2023/12/10 01:04:18;;;;;;;;;;;;;;;21.69;17.12;97248.84;5023881;28;19925;-87
2023/12/10 01:06:46;;;;;;;;;;;;;;;21.66;17.06;97251.72;5024600;28;19921;-87
2023/12/10 01:09:15;;;;;;;;;;;;;;;21.20;17.37;97236.91;5041044;28;19925;-87
2023/12/10 01:11:41;;;;;;;;;;;;;;;20.60;17.70;97240.25;5028162;28;19928;-88
2023/12/10 01:14:07;;;;;;;;;;;;;;;20.88;18.19;97238.81;5027273;28;20335;-87
2023/12/10 01:16:33;;;;;;;;;;;;;;;21.32;17.28;97241.00;5026044;28;19921;-86
2023/12/10 01:18:59;;;;;;;;;;;;;;;21.57;16.74;97243.97;5029137;28;19925;-87
2023/12/10 01:21:25;;;;;;;;;;;;;;;21.73;17.01;97243.16;5024133;28;19930;-86
2023/12/10 01:23:54;;;;;;;;;;;;;;;21.65;16.96;97248.16;5025209;28;19917;-87
2023/12/10 01:26:23;;;;;;;;;;;;;;;21.61;17.07;97236.28;5020529;28;20363;-87
2023/12/10 01:28:49;;;;;;;;;;;;;;;21.17;17.48;97226.59;5027198;28;19922;-87
2023/12/10 01:31:16;;;;;;;;;;;;;;;21.41;17.28;97237.59;5025900;28;19944;-87
2023/12/10 01:33:42;;;;;;;;;;;;;;;21.78;17.10;97237.84;5019598;28;19926;-88
2023/12/10 01:36:08;;;;;;;;;;;;;;;21.91;16.89;97226.78;5004336;28;20000;-87
2023/12/10 01:38:34;;;;;;;;;;;;;;;21.74;17.14;97230.78;5030126;28;19925;-87
2023/12/10 01:41:00;;;;;;;;;;;;;;;21.73;16.80;97232.78;5032052;27;20439;-87
2023/12/10 01:43:26;;;;;;;;;;;;;;;21.97;17.05;97231.38;5065073;27;19919;-87
2023/12/10 01:45:54;;;;;;;;;;;;;;;21.67;17.10;97225.38;5026078;27;19954;-86
2023/12/10 01:48:23;;;;;;;;;;;;;;;21.55;17.20;97221.28;5029511;28;19960;-87
2023/12/10 01:50:49;;;;;;;;;;;;;;;21.49;17.29;97217.47;5030346;28;19917;-87
2023/12/10 01:53:15;;;;;;;;;;;;;;;21.43;17.00;97221.19;5062761;27;19917;-87
2023/12/10 01:55:41;;;;;;;;;;;;;;;21.54;17.09;97216.91;5025599;28;19921;-87
2023/12/10 01:58:09;;;;;;;;;;;;;;;21.85;16.58;97200.56;5029856;28;19917;-87
2023/12/10 02:00:35;;;;;;;;;;;;;;;22.01;16.18;97206.91;5029935;28;20011;-87
2023/12/10 02:03:05;;;;;;;;;;;;;;;22.12;15.97;97200.25;5027426;28;20349;-88
2023/12/10 02:05:31;;;;;;;;;;;;;;;22.11;16.48;97198.66;5067332;28;19933;-87
2023/12/10 02:07:57;;;;;;;;;;;;;;;21.80;16.50;97192.69;5028932;28;19944;-87
2023/12/10 02:10:23;;;;;;;;;;;;;;;21.32;17.05;97197.13;5023872;28;20285;-87
2023/12/10 02:12:52;;;;;;;;;;;;;;;21.68;17.03;97191.41;5028868;28;19921;-88
2023/12/10 02:15:19;;;;;;;;;;;;;;;21.65;16.72;97185.91;5031211;27;19928;-88
2023/12/10 02:17:45;;;;;;;;;;;;;;;21.08;17.48;97180.97;5020100;28;20413;-88
2023/12/10 02:20:12;;;;;;;;;;;;;;;21.54;17.23;97180.59;5016261;28;20378;-87
2023/12/10 02:22:45;;;;;;;;;;;;;;;22.02;16.72;97179.75;5030835;28;19932;-88
2023/12/10 02:25:13;;;;;;;;;;;;;;;22.05;16.79;97170.47;5025527;28;20451;-88
2023/12/10 02:27:39;;;;;;;;;;;;;;;21.91;17.16;97171.63;5026534;28;19997;-88
2023/12/10 02:30:06;;;;;;;;;;;;;;;22.06;17.20;97160.06;5027124;28;19929;-88
2023/12/10 02:32:32;;;;;;;;;;;;;;;22.07;17.31;97148.47;5023079;28;20330;-88
2023/12/10 02:34:58;;;;;;;;;;;;;;;22.42;17.15;97147.41;5016917;28;20019;-88
2023/12/10 02:37:24;;;;;;;;;;;;;;;22.69;16.59;97145.00;5031780;28;19921;-87
2023/12/10 02:39:50;;;;;;;;;;;;;;;22.72;16.73;97140.53;5025539;28;19917;-87
2023/12/10 02:42:16;;;;;;;;;;;;;;;22.52;16.54;97120.34;5012446;28;19922;-87
2023/12/10 02:44:42;;;;;;;;;;;;;;;22.63;16.11;97127.22;5028475;28;20297;-87
2023/12/10 02:47:08;;;;;;;;;;;;;;;22.74;15.65;97126.06;5039552;27;20297;-87
2023/12/10 02:49:34;;;;;;;;;;;;;;;22.57;15.34;97145.75;5030553;28;20016;-87
2023/12/10 02:52:00;;;;;;;;;;;;;;;22.16;16.30;97151.38;5032355;28;19917;-87
2023/12/10 02:54:26;;;;;;;;;;;;;;;22.18;16.84;97145.34;5023421;28;19925;-87
2023/12/10 02:56:52;;;;;;;;;;;;;;;21.43;17.54;97145.78;5028696;28;20420;-87
2023/12/10 02:59:18;;;;;;;;;;;;;;;21.46;17.78;97142.91;5035502;28;19967;-87
2023/12/10 03:01:45;;;;;;;;;;;;;;;21.06;18.20;97147.94;5023645;28;19977;-86
2023/12/10 03:04:11;;;;;;;;;;;;;;;21.41;18.10;97156.63;5015544;28;19926;-87
2023/12/10 03:06:37;;;;;;;;;;;;;;;21.99;17.47;97153.47;5022621;28;19928;-87
2023/12/10 03:09:04;;;;;;;;;;;;;;;22.59;16.80;97146.06;5022734;28;19928;-87
2023/12/10 03:11:30;;;;;;;;;;;;;;;22.59;16.89;97132.09;5030147;28;19974;-87
2023/12/10 03:13:56;;;;;;;;;;;;;;;21.88;17.35;97132.63;5025252;28;19922;-87
2023/12/10 03:16:22;;;;;;;;;;;;;;;22.12;17.40;97139.53;5031315;28;19921;-88
2023/12/10 03:18:48;;;;;;;;;;;;;;;22.25;17.33;97128.34;5020481;28;20012;-87
2023/12/10 03:21:15;;;;;;;;;;;;;;;22.27;17.29;97123.88;5025432;28;20301;-87
2023/12/10 03:23:41;;;;;;;;;;;;;;;21.73;17.87;97132.19;5031073;28;19929;-87
2023/12/10 03:26:07;;;;;;;;;;;;;;;21.00;18.49;97135.69;5028101;28;20004;-87
2023/12/10 03:28:33;;;;;;;;;;;;;;;21.33;18.46;97137.25;5031440;28;19943;-87
2023/12/10 03:31:00;;;;;;;;;;;;;;;22.02;17.85;97144.19;5030982;28;19929;-87
2023/12/10 03:33:26;;;;;;;;;;;;;;;22.58;17.34;97138.94;5030639;28;19925;-87
2023/12/10 03:35:52;;;;;;;;;;;;;;;22.96;17.15;97138.19;5031606;28;19974;-87
2023/12/10 03:38:18;;;;;;;;;;;;;;;22.82;16.98;97130.22;5031442;28;19921;-87
2023/12/10 03:40:44;;;;;;;;;;;;;;;22.42;17.65;97127.06;5031043;28;19925;-87
2023/12/10 03:43:10;;;;;;;;;;;;;;;22.64;17.25;97131.56;5030763;28;19927;-88
2023/12/10 03:45:36;;;;;;;;;;;;;;;22.74;16.98;97124.06;5025578;28;19921;-87
2023/12/10 03:48:02;;;;;;;;;;;;;;;22.56;17.37;97121.81;5017986;28;19918;-87
2023/12/10 03:50:28;;;;;;;;;;;;;;;22.51;17.37;97118.78;5029827;28;20006;-88
2023/12/10 03:52:55;;;;;;;;;;;;;;;22.61;16.91;97118.47;5030530;28;20454;-87
2023/12/10 03:55:21;;;;;;;;;;;;;;;22.56;17.03;97126.63;5030162;28;19929;-87
2023/12/10 03:57:48;;;;;;;;;;;;;;;22.55;17.42;97123.03;5014939;28;20003;-87
2023/12/10 04:00:15;;;;;;;;;;;;;;;22.56;17.41;97119.00;5027565;28;22150;-88
2023/12/10 04:02:41;;;;;;;;;;;;;;;22.82;17.16;97128.22;5033956;28;19921;-87
2023/12/10 04:05:11;;;;;;;;;;;;;;;23.03;17.02;97133.13;5028700;28;19956;-88
2023/12/10 04:07:38;;;;;;;;;;;;;;;22.89;16.98;97139.19;5018784;28;19921;-88
2023/12/10 04:10:04;;;;;;;;;;;;;;;22.63;17.49;97132.03;5012837;28;19952;-88
2023/12/10 04:12:30;;;;;;;;;;;;;;;23.02;16.25;97131.56;5037073;28;19921;-87
2023/12/10 04:14:57;;;;;;;;;;;;;;;23.29;15.60;97128.28;5022735;28;19928;-87
2023/12/10 04:17:23;;;;;;;;;;;;;;;22.95;14.71;97126.19;5032672;28;19962;-87
2023/12/10 04:19:49;;;;;;;;;;;;;;;22.02;16.13;97126.63;5028628;28;19928;-87
2023/12/10 04:22:15;;;;;;;;;;;;;;;21.90;15.78;97130.16;5028179;28;19928;-86
2023/12/10 04:24:41;;;;;;;;;;;;;;;21.36;16.66;97135.59;5025572;28;20016;-87
2023/12/10 04:27:07;;;;;;;;;;;;;;;21.85;16.52;97153.06;5017465;28;20016;-87
2023/12/10 04:29:33;;;;;;;;;;;;;;;22.29;16.13;97157.78;5020184;28;19929;-87
2023/12/10 04:32:00;;;;;;;;;;;;;;;22.65;15.79;97151.94;5025678;28;19921;-88
2023/12/10 04:34:26;;;;;;;;;;;;;;;22.83;15.57;97160.56;5026784;28;19968;-87
2023/12/10 04:36:52;;;;;;;;;;;;;;;22.57;15.49;97162.53;5027987;28;20396;-87
2023/12/10 04:39:19;;;;;;;;;;;;;;;22.05;15.46;97158.50;5023443;28;20042;-87
2023/12/10 04:41:45;;;;;;;;;;;;;;;21.91;16.09;97165.28;5013573;28;19925;-87
2023/12/10 04:44:11;;;;;;;;;;;;;;;22.19;15.88;97161.69;5029761;28;19965;-87
2023/12/10 04:46:38;;;;;;;;;;;;;;;22.25;15.24;97175.88;5014628;28;19922;-87
2023/12/10 04:49:04;;;;;;;;;;;;;;;20.95;16.44;97175.28;5026416;28;20449;-88
2023/12/10 04:51:30;;;;;;;;;;;;;;;21.02;16.65;97177.91;5029101;28;19921;-88
2023/12/10 04:53:56;;;;;;;;;;;;;;;21.59;16.50;97182.06;5018225;28;19961;-87
2023/12/10 04:56:23;;;;;;;;;;;;;;;22.12;15.77;97180.66;5040453;28;19922;-89
2023/12/10 04:58:49;;;;;;;;;;;;;;;22.08;15.45;97183.56;5030578;28;19921;-88
2023/12/10 05:01:16;;;;;;;;;;;;;;;21.90;15.62;97191.66;5011386;28;19964;-88
2023/12/10 05:03:42;;;;;;;;;;;;;;;21.91;15.31;97194.00;5028625;28;19925;-88
2023/12/10 05:06:08;;;;;;;;;;;;;;;21.09;15.90;97199.31;5029939;28;19921;-88
2023/12/10 05:08:34;;;;;;;;;;;;;;;20.60;16.68;97196.41;5029388;28;20298;-88
2023/12/10 05:11:00;;;;;;;;;;;;;;;20.47;16.77;97191.91;5027593;28;19921;-87
2023/12/10 05:13:26;;;;;;;;;;;;;;;20.87;16.55;97190.59;5033150;28;20394;-88
2023/12/10 05:15:53;;;;;;;;;;;;;;;21.12;16.48;97192.84;5033213;28;20294;-88
2023/12/10 05:18:19;;;;;;;;;;;;;;;21.38;16.15;97194.56;5033648;28;19921;-88
2023/12/10 05:20:45;;;;;;;;;;;;;;;21.49;16.12;97186.72;5032829;28;19925;-88
2023/12/10 05:23:11;;;;;;;;;;;;;;;21.99;15.89;97184.19;5032595;28;19922;-89
2023/12/10 05:25:37;;;;;;;;;;;;;;;22.28;15.69;97180.59;5015065;28;20055;-88
2023/12/10 05:28:03;;;;;;;;;;;;;;;22.02;15.90;97191.72;5032884;28;19921;-88
2023/12/10 05:30:30;;;;;;;;;;;;;;;21.81;16.30;97192.25;5081136;28;19921;-88
2023/12/10 05:32:56;;;;;;;;;;;;;;;21.80;16.79;97190.69;5033170;28;19939;-88
2023/12/10 05:35:22;;;;;;;;;;;;;;;22.19;16.49;97192.44;5026845;28;19969;-88
2023/12/10 05:37:48;;;;;;;;;;;;;;;22.57;15.61;97187.72;5013529;28;19917;-88
2023/12/10 05:40:14;;;;;;;;;;;;;;;22.21;16.02;97195.56;5014163;28;20579;-88
2023/12/10 05:42:40;;;;;;;;;;;;;;;21.96;16.45;97196.25;5025632;28;19921;-88
2023/12/10 05:45:07;;;;;;;;;;;;;;;22.11;16.58;97198.66;5032494;28;19921;-88
2023/12/10 05:47:33;;;;;;;;;;;;;;;21.52;17.00;97210.22;5029823;28;19921;-88
2023/12/10 05:49:59;;;;;;;;;;;;;;;21.01;17.76;97207.00;5026223;28;19922;-88
2023/12/10 05:52:25;;;;;;;;;;;;;;;20.85;17.89;97207.00;5032141;28;19921;-88
2023/12/10 05:54:51;;;;;;;;;;;;;;;20.82;18.49;97207.84;5032727;28;19925;-88
2023/12/10 05:57:17;;;;;;;;;;;;;;;20.32;19.12;97215.72;5033837;28;20356;-88
2023/12/10 05:59:44;;;;;;;;;;;;;;;20.30;19.16;97207.03;5032570;28;20298;-88
2023/12/10 06:02:10;;;;;;;;;;;;;;;21.21;18.49;97207.75;5032285;28;19921;-88
2023/12/10 06:04:36;;;;;;;;;;;;;;;21.46;18.07;97212.75;5023530;28;19932;-88
2023/12/10 06:07:02;;;;;;;;;;;;;;;21.80;18.01;97221.41;5021752;28;19989;-88
2023/12/10 06:09:28;;;;;;;;;;;;;;;22.33;17.57;97222.00;5032348;28;19921;-87
2023/12/10 06:11:54;;;;;;;;;;;;;;;22.02;17.82;97227.25;5032279;28;20011;-88
2023/12/10 06:14:20;;;;;;;;;;;;;;;22.14;17.75;97229.31;5031125;28;19913;-87
2023/12/10 06:16:47;;;;;;;;;;;;;;;22.35;17.65;97228.72;5040691;28;19971;-88
2023/12/10 06:19:13;;;;;;;;;;;;;;;22.57;17.40;97232.47;5029391;28;20020;-88
2023/12/10 06:21:39;;;;;;;;;;;;;;;22.45;17.81;97236.00;5022625;28;19925;-88
2023/12/10 06:24:06;;;;;;;;;;;;;;;22.38;17.88;97235.47;5037272;27;19921;-88
2023/12/10 06:26:32;;;;;;;;;;;;;;;22.62;17.80;97245.94;5027939;28;19922;-88
2023/12/10 06:28:58;;;;;;;;;;;;;;;22.67;17.38;97244.63;5011996;28;19917;-88
2023/12/10 06:31:24;;;;;;;;;;;;;;;22.68;17.75;97238.56;5030804;28;20024;-87
2023/12/10 06:33:50;;;;;;;;;;;;;;;22.66;17.96;97245.84;5028514;28;20471;-88
2023/12/10 06:36:16;;;;;;;;;;;;;;;22.56;17.93;97247.69;5030382;28;19921;-88
2023/12/10 06:38:42;;;;;;;;;;;;;;;23.10;17.47;97256.09;5021386;28;20294;-88
2023/12/10 06:41:09;;;;;;;;;;;;;;;22.72;17.93;97266.44;5038652;27;19930;-89
2023/12/10 06:43:36;;;;;;;;;;;;;;;22.45;18.11;97258.41;5025733;28;19932;-89
2023/12/10 06:46:02;;;;;;;;;;;;;;;22.30;18.40;97264.84;5029703;28;19921;-89
2023/12/10 06:48:28;;;;;;;;;;;;;;;22.90;17.96;97274.31;5026170;28;20393;-89
2023/12/10 06:50:54;;;;;;;;;;;;;;;23.11;17.72;97266.06;5029415;28;20389;-89
2023/12/10 06:53:21;;;;;;;;;;;;;;;23.41;17.47;97261.19;5033150;28;19921;-89
2023/12/10 06:55:48;;;;;;;;;;;;;;;23.76;16.90;97277.59;5027066;28;19928;-89
2023/12/10 06:58:14;;;;;;;;;;;;;;;24.11;16.10;97283.28;5028242;28;19965;-89
2023/12/10 07:00:41;;;;;;;;;;;;;;;23.78;16.71;97294.75;5027377;28;20394;-89
2023/12/10 07:03:07;;;;;;;;;;;;;;;23.91;16.71;97287.09;5023048;28;19928;-88
2023/12/10 07:05:33;;;;;;;;;;;;;;;24.10;16.63;97288.09;5028610;28;19982;-89
2023/12/10 07:07:59;;;;;;;;;;;;;;;24.28;16.91;97299.47;5024596;27;19972;-89
2023/12/10 07:10:25;;;;;;;;;;;;;;;24.33;16.62;97301.72;5028600;28;19918;-89
2023/12/10 07:12:53;;;;;;;;;;;;;;;24.31;16.50;97309.00;5035264;28;20028;-90
2023/12/10 07:15:19;;;;;;;;;;;;;;;23.99;15.98;97308.03;5027123;28;20028;-89
2023/12/10 07:17:45;;;;;;;;;;;;;;;23.18;16.45;97310.66;5033322;28;19988;-90
2023/12/10 07:20:11;;;;;;;;;;;;;;;23.44;17.00;97314.28;5036575;28;19928;-89
2023/12/10 07:22:37;;;;;;;;;;;;;;;23.98;16.92;97311.31;5033322;28;19917;-90
2023/12/10 07:25:04;;;;;;;;;;;;;;;24.32;16.94;97313.41;5033177;28;19925;-90
2023/12/10 07:27:31;;;;;;;;;;;;;;;24.37;16.73;97321.22;5030490;28;20380;-90
2023/12/10 07:29:58;;;;;;;;;;;;;;;24.42;16.07;97329.06;5030983;28;19922;-90
2023/12/10 07:32:24;;;;;;;;;;;;;;;23.77;16.29;97328.84;5033086;28;19926;-88
2023/12/10 07:34:50;;;;;;;;;;;;;;;23.59;16.60;97337.81;5019445;28;20026;-87
2023/12/10 07:37:16;;;;;;;;;;;;;;;23.38;16.72;97347.66;5030726;28;20334;-89
2023/12/10 07:39:42;;;;;;;;;;;;;;;23.54;17.36;97352.41;5025851;28;19917;-88
2023/12/10 07:42:08;;;;;;;;;;;;;;;23.98;17.14;97356.97;5025082;28;19921;-89
2023/12/10 07:44:35;;;;;;;;;;;;;;;24.38;16.38;97359.25;5026779;28;19972;-89
2023/12/10 07:47:02;;;;;;;;;;;;;;;24.65;16.53;97374.31;5021891;28;20297;-89
2023/12/10 07:49:28;;;;;;;;;;;;;;;24.84;16.23;97382.91;5046738;27;19922;-89
2023/12/10 07:51:54;;;;;;;;;;;;;;;24.86;16.09;97389.66;5022261;28;19982;-89
2023/12/10 07:54:20;;;;;;;;;;;;;;;24.91;15.63;97386.25;5021467;28;20016;-88
2023/12/10 07:56:46;;;;;;;;;;;;;;;24.95;16.21;97398.13;5034283;27;19921;-89
2023/12/10 07:59:12;;;;;;;;;;;;;;;24.85;16.06;97399.34;5021887;28;19929;-88
2023/12/10 08:01:39;;;;;;;;;;;;;;;24.77;16.05;97400.81;5021282;28;19929;-88
2023/12/10 08:04:06;;;;;;;;;;;;;;;24.43;16.00;97401.56;5023491;28;19937;-87
2023/12/10 08:06:32;;;;;;;;;;;;;;;23.40;16.74;97406.06;5024552;28;19925;-88
2023/12/10 08:08:59;;;;;;;;;;;;;;;23.13;17.20;97408.41;5022508;28;19974;-89
2023/12/10 08:11:25;;;;;;;;;;;;;;;23.14;17.25;97410.00;5033231;27;20312;-89
2023/12/10 08:13:51;;;;;;;;;;;;;;;23.28;17.20;97415.19;5023790;28;19921;-89
2023/12/10 08:16:17;;;;;;;;;;;;;;;23.57;16.85;97418.72;5045525;28;19927;-89
2023/12/10 08:18:43;;;;;;;;;;;;;;;;;;5007053;28;19921;-91
2023/12/10 08:21:09;;;;;;;;;;;;;;;23.47;17.26;97428.25;5029599;28;19925;-90
2023/12/10 08:23:36;;;;;;;;;;;;;;;24.02;16.92;97421.34;5025456;28;19925;-89
2023/12/10 08:26:03;;;;;;;;;;;;;;;24.03;16.70;97432.13;5024212;28;19917;-89
2023/12/10 08:28:29;;;;;;;;;;;;;;;24.26;16.67;97441.44;5028916;28;19960;-89
2023/12/10 08:30:55;;;;;;;;;;;;;;;23.65;17.14;97439.72;5022750;28;20740;-89
2023/12/10 08:33:22;;;;;;;;;;;;;;;23.17;17.42;97439.94;5033491;28;19976;-87
2023/12/10 08:35:48;;;;;;;;;;;;;;;23.06;17.29;97445.81;5020528;28;21267;-87
2023/12/10 08:38:14;;;;;;;;;;;;;;;23.24;17.62;97440.47;5019631;28;19929;-87
2023/12/10 08:40:40;;;;;;;;;;;;;;;23.47;17.38;97438.69;5022953;28;19921;-88
2023/12/10 08:43:06;;;;;;;;;;;;;;;23.40;17.25;97445.28;5026176;28;19979;-88
2023/12/10 08:45:32;;;;;;;;;;;;;;;23.71;17.37;97451.94;5004460;28;20346;-87
2023/12/10 08:47:58;;;;;;;;;;;;;;;23.94;17.14;97443.19;5041682;28;19923;-87
2023/12/10 08:50:24;;;;;;;;;;;;;;;23.70;17.31;97443.97;5032395;28;20436;-86
2023/12/10 08:52:50;;;;;;;;;;;;;;;23.99;17.07;97453.88;5030591;27;19920;-90
2023/12/10 08:55:17;;;;;;;;;;;;;;;24.13;17.05;97449.88;5031903;28;19931;-88
2023/12/10 08:57:44;;;;;;;;;;;;;;;24.34;16.90;97451.19;5018403;28;19929;-87
2023/12/10 09:00:11;;;;;;;;;;;;;;;23.77;17.08;97452.97;5034772;28;19982;-88
2023/12/10 09:02:37;;;;;;;;;;;;;;;24.00;17.43;97449.03;5001435;28;19950;-87
2023/12/10 09:05:03;;;;;;;;;;;;;;;24.21;17.33;97450.41;5023008;28;20267;-89
2023/12/10 09:07:29;;;;;;;;;;;;;;;24.53;17.53;97450.13;5025509;28;19953;-87
2023/12/10 09:09:59;;;;;;;;;;;;;;;24.80;17.92;97444.84;5028853;28;19929;-87
2023/12/10 09:12:27;;;;;;;;;;;;;;;25.03;16.92;97438.00;5027032;28;19932;-87
2023/12/10 09:14:54;;;;;;;;;;;;;;;24.80;17.37;97435.63;5026846;27;20363;-88
2023/12/10 09:17:20;;;;;;;;;;;;;;;24.61;17.79;97441.03;5026837;28;19964;-89
2023/12/10 09:19:47;;;;;;;;;;;;;;;24.55;17.88;97437.22;5037461;28;19925;-90
2023/12/10 09:22:13;;;;;;;;;;;;;;;25.16;17.27;97442.31;5031591;28;19925;-90
2023/12/10 09:24:40;;;;;;;;;;;;;;;25.61;17.03;97441.09;5036622;28;19921;-90
2023/12/10 09:27:06;;;;;;;;;;;;;;;25.27;17.54;97436.31;5036620;28;19928;-88
2023/12/10 09:29:41;;;;;;;;;;;;;;;25.53;17.34;97434.97;5052722;28;19926;-90
2023/12/10 09:32:07;;;;;;;;;;;;;;;25.80;16.95;97443.53;5044004;28;19928;-90
2023/12/10 09:34:33;;;;;;;;;;;;;;;25.96;17.21;97442.53;5034323;28;20405;-90
2023/12/10 09:37:00;;;;;;;;;;;;;;;26.25;17.09;97436.56;5038440;28;19928;-90
2023/12/10 09:45:33;;;;;;;;;;;;;;;25.81;17.63;97441.53;5016343;28;19929;-88
2023/12/10 09:48:01;;;;;;;;;;;;;;;26.19;17.20;97444.81;5028220;28;20411;-88
2023/12/10 09:50:27;;;;;;;;;;;;;;;25.87;17.93;97436.84;5032443;28;19968;-89
2023/12/10 09:52:54;;;;;;;;;;;;;;;25.53;18.43;97432.16;5026549;28;20322;-89
2023/12/10 09:55:20;;;;;;;;;;;;;;;25.42;18.08;97429.69;5031479;28;19917;-90
2023/12/10 09:57:47;;;;;;;;;;;;;;;25.42;18.52;97431.72;5028018;28;19926;-89
2023/12/10 10:00:13;;;;;;;;;;;;;;;25.56;18.08;97436.06;5028674;28;19926;-87
2023/12/10 10:02:39;;;;;;;;;;;;;;;25.79;18.30;97432.78;5003901;28;20321;-88
2023/12/10 10:05:07;;;;;;;;;;;;;;;25.81;18.23;97431.03;5030216;28;19979;-88
2023/12/10 10:07:33;;;;;;;;;;;;;;;25.78;18.43;97425.56;5026485;28;20397;-85
2023/12/10 10:09:59;;;;;;;;;;;;;;;26.08;17.30;97428.34;5020675;28;19925;-85
2023/12/10 10:12:33;;;;;;;;;;;;;;;26.16;17.84;97422.47;5024248;28;19925;-87
2023/12/10 10:15:00;;;;;;;;;;;;;;;26.16;17.51;97423.25;5030444;28;19929;-87
2023/12/10 10:17:30;;;;;;;;;;;;;;;25.90;17.24;97430.31;5026628;28;20390;-86
2023/12/10 10:19:56;;;;;;;;;;;;;;;26.09;17.42;97434.78;5022179;28;19952;-86
2023/12/10 10:22:23;;;;;;;;;;;;;;;26.26;18.14;97430.47;5030075;28;19928;-86
2023/12/10 10:24:51;;;;;;;;;;;;;;;26.61;17.63;97425.38;5023497;28;20011;-88
2023/12/10 10:27:18;;;;;;;;;;;;;;;26.89;17.27;97418.56;5026979;28;19981;-89
2023/12/10 10:29:44;;;;;;;;;;;;;;;27.12;16.48;97405.91;5023873;28;19928;-89
2023/12/10 10:32:16;;;;;;;;;;;;;;;26.81;17.26;97419.34;5008607;28;19952;-86
2023/12/10 10:34:44;;;;;;;;;;;;;;;27.05;16.88;97414.66;5027980;28;20044;-87
2023/12/10 10:37:10;;;;;;;;;;;;;;;26.97;17.70;97419.81;5035344;27;20365;-88
2023/12/10 10:39:37;;;;;;;;;;;;;;;27.10;17.26;97420.44;5032271;28;19927;-89
2023/12/10 10:42:07;;;;;;;;;;;;;;;27.25;16.97;97418.56;5021788;28;19918;-89
2023/12/10 10:44:36;;;;;;;;;;;;;;;27.14;17.21;97426.69;5020965;28;20008;-87
2023/12/10 10:47:04;;;;;;;;;;;;;;;27.28;17.24;97419.66;5021917;28;19921;-89
2023/12/10 10:49:31;;;;;;;;;;;;;;;27.40;16.79;97427.94;5027662;28;19989;-89
2023/12/10 10:51:58;;;;;;;;;;;;;;;27.55;17.12;97425.25;5025617;28;19921;-88
2023/12/10 10:54:24;;;;;;;;;;;;;;;27.61;16.68;97431.06;5028461;28;19928;-88
2023/12/10 10:56:50;;;;;;;;;;;;;;;27.65;16.60;97429.63;5027006;28;19917;-87
2023/12/10 10:59:32;;;;;;;;;;;;;;;27.19;16.95;97430.94;5049726;28;19973;-89
2023/12/10 11:01:59;;;;;;;;;;;;;;;27.34;17.00;97435.47;5026128;28;19925;-87
2023/12/10 11:04:32;;;;;;;;;;;;;;;27.11;17.50;97436.09;5026006;28;19933;-89
2023/12/10 11:06:59;;;;;;;;;;;;;;;26.96;17.68;97432.34;5026095;28;19982;-88
2023/12/10 11:09:25;;;;;;;;;;;;;;;26.86;17.97;97435.63;5030791;28;19932;-88
2023/12/10 11:11:51;;;;;;;;;;;;;;;26.65;18.14;97435.25;5023570;28;19976;-88
2023/12/10 11:14:22;;;;;;;;;;;;;;;26.71;17.33;97424.16;5027551;28;20373;-87
2023/12/10 11:16:59;;;;;;;;;;;;;;;26.67;17.70;97434.78;5019002;28;20400;-87
2023/12/10 11:19:25;;;;;;;;;;;;;;;26.93;17.80;97433.28;5029050;28;20016;-86
2023/12/10 11:21:51;;;;;;;;;;;;;;;27.30;17.62;97439.69;5022354;28;20336;-85
2023/12/10 11:24:17;;;;;;;;;;;;;;;27.31;17.48;97433.56;5027733;28;19937;-86
2023/12/10 11:26:43;;;;;;;;;;;;;;;27.39;17.07;97431.25;5027851;28;20027;-87
2023/12/10 11:29:09;;;;;;;;;;;;;;;27.57;16.46;97436.84;5021655;28;19921;-86
2023/12/10 11:31:35;;;;;;;;;;;;;;;27.07;17.19;97441.09;5024693;28;20012;-87
2023/12/10 11:34:01;;;;;;;;;;;;;;;26.93;17.12;97440.97;5026900;28;20001;-86
2023/12/10 11:36:27;;;;;;;;;;;;;;;27.13;16.84;97436.41;5020996;28;20370;-87
2023/12/10 11:38:54;;;;;;;;;;;;;;;26.87;16.47;97434.38;5019267;28;19979;-86
2023/12/10 11:41:20;;;;;;;;;;;;;;;26.80;17.44;97441.09;5033156;28;19921;-85
2023/12/10 11:43:47;;;;;;;;;;;;;;;27.05;17.26;97445.66;5030704;28;19917;-87
2023/12/10 11:46:23;;;;;;;;;;;;;;;27.21;17.15;97440.47;5029463;28;19925;-86
2023/12/10 11:48:49;;;;;;;;;;;;;;;27.30;17.25;97442.50;5029104;28;20382;-86
2023/12/10 11:51:16;;;;;;;;;;;;;;;27.36;16.92;97446.25;5027835;28;19932;-87
2023/12/10 11:53:43;;;;;;;;;;;;;;;27.30;16.74;97448.16;5028176;28;19970;-88
2023/12/10 11:56:09;;;;;;;;;;;;;;;27.38;16.54;97447.38;5011200;28;20513;-88
2023/12/10 11:58:36;;;;;;;;;;;;;;;27.23;16.94;97460.53;5017856;28;20024;-86
2023/12/10 12:01:02;;;;;;;;;;;;;;;27.19;16.62;97453.50;5009804;28;19951;-86
2023/12/10 12:03:31;;;;;;;;;;;;;;;26.82;16.76;97465.97;5026994;28;20019;-88
2023/12/10 12:05:59;;;;;;;;;;;;;;;26.85;16.87;97465.81;5028498;28;20213;-88
2023/12/10 12:08:26;;;;;;;;;;;;;;;26.30;17.08;97464.88;5030842;28;19921;-89
2023/12/10 12:10:53;;;;;;;;;;;;;;;26.55;17.20;97478.72;5027458;28;19956;-87
2023/12/10 12:13:19;;;;;;;;;;;;;;;26.67;16.97;97468.59;5023753;28;20422;-87
2023/12/10 12:15:46;;;;;;;;;;;;;;;26.86;16.74;97472.25;5013008;28;19971;-85
2023/12/10 12:18:12;;;;;;;;;;;;;;;26.90;16.81;97468.03;5028717;28;19969;-85
2023/12/10 12:20:39;;;;;;;;;;;;;;;26.87;16.88;97470.97;5029410;28;19956;-87
2023/12/10 12:23:05;;;;;;;;;;;;;;;26.83;16.67;97465.50;5029574;28;19929;-88
2023/12/10 12:25:34;;;;;;;;;;;;;;;26.77;16.92;97475.06;5029871;28;19964;-90
2023/12/10 12:28:05;;;;;;;;;;;;;;;26.70;17.02;97487.34;5036971;28;19921;-88
2023/12/10 12:30:31;;;;;;;;;;;;;;;26.72;16.74;97487.69;5027447;28;19925;-86
2023/12/10 12:32:57;;;;;;;;;;;;;;;26.88;16.96;97490.25;5036302;28;19922;-88
2023/12/10 12:35:23;;;;;;;;;;;;;;;26.81;16.77;97495.41;5007027;28;19968;-89
2023/12/10 12:37:49;;;;;;;;;;;;;;;26.86;16.70;97503.25;5030375;28;19917;-87
2023/12/10 12:40:17;;;;;;;;;;;;;;;26.84;16.93;97500.09;5031789;28;19925;-86
2023/12/10 12:42:43;;;;;;;;;;;;;;;26.80;16.93;97502.28;5010742;28;19983;-88
2023/12/10 12:45:09;;;;;;;;;;;;;;;26.84;17.04;97506.50;5022612;28;19928;-88
2023/12/10 12:47:36;;;;;;;;;;;;;;;27.04;16.37;97508.91;5028412;28;19933;-86
2023/12/10 12:50:02;;;;;;;;;;;;;;;26.94;16.80;97510.91;5030355;28;19922;-84